createdAt,value
2018-12-24T00:02:39.687Z,70.36
2018-12-24T00:05:23.021Z,70.19
2018-12-24T00:07:51.309Z,70.62
2018-12-24T00:10:32.301Z,70.66
2018-12-24T00:13:13.836Z,70.06
2018-12-24T00:15:58.374Z,70.29
2018-12-24T00:18:42.036Z,70.17
2018-12-24T00:21:10.360Z,70.23
2018-12-24T00:23:55.099Z,70.28
2018-12-24T00:26:37.732Z,70.28
2018-12-24T00:29:21.101Z,69.87
2018-12-24T00:32:12.256Z,70.14
2018-12-24T00:34:53.161Z,69.95
2018-12-24T00:37:36.536Z,69.98
2018-12-24T00:40:19.955Z,69.89
2018-12-24T00:43:04.541Z,69.67
2018-12-24T00:45:32.809Z,69.58
2018-12-24T00:48:18.161Z,69.45
2018-12-24T00:51:02.715Z,69.85
2018-12-24T00:53:46.254Z,69.54
2018-12-24T00:56:26.903Z,68.99
2018-12-24T00:58:55.180Z,69.16
2018-12-24T01:01:44.664Z,69.01
2018-12-24T01:04:12.910Z,68.68
2018-12-24T01:06:54.176Z,69.09
2018-12-24T01:09:35.600Z,68.82
2018-12-24T01:12:03.962Z,69.33
2018-12-24T01:14:57.885Z,69.22
2018-12-24T01:17:49.934Z,69.09
2018-12-24T01:20:30.850Z,69.04
2018-12-24T01:23:13.369Z,69.61
2018-12-24T01:25:54.934Z,69.35
2018-12-24T01:28:23.183Z,69.65
2018-12-24T01:34:06.309Z,69.91
2018-12-24T01:36:46.996Z,70.08
2018-12-24T01:39:15.257Z,70.06
2018-12-24T01:41:43.525Z,69.63
2018-12-24T01:44:13.435Z,69.96
2018-12-24T01:46:58.245Z,70.25
2018-12-24T01:52:41.021Z,69.89
2018-12-24T01:55:21.666Z,69.73
2018-12-24T01:58:03.234Z,69.62
2018-12-24T02:00:31.497Z,69.84
2018-12-24T02:03:12.346Z,70.00
2018-12-24T02:06:05.822Z,69.89
2018-12-24T02:08:49.327Z,70.10
2018-12-24T02:11:32.768Z,70.04
2018-12-24T02:14:13.401Z,70.09
2018-12-24T02:16:41.666Z,70.73
2018-12-24T02:19:09.961Z,70.40
2018-12-24T02:24:23.488Z,70.80
2018-12-24T02:27:04.324Z,70.55
2018-12-24T02:29:47.747Z,70.47
2018-12-24T02:32:41.263Z,70.47
2018-12-24T02:35:09.538Z,70.46
2018-12-24T02:37:37.922Z,70.43
2018-12-24T02:40:21.011Z,70.53
2018-12-24T02:43:04.437Z,70.32
2018-12-24T02:45:32.689Z,70.25
2018-12-24T02:48:00.986Z,70.27
2018-12-24T02:50:42.478Z,70.49
2018-12-24T02:53:27.038Z,70.35
2018-12-24T02:56:11.560Z,70.46
2018-12-24T02:58:56.078Z,70.37
2018-12-24T03:01:40.662Z,71.09
2018-12-24T03:04:24.086Z,70.67
2018-12-24T03:07:08.629Z,70.66
2018-12-24T03:09:53.143Z,70.62
2018-12-24T03:12:37.721Z,71.04
2018-12-24T03:15:22.316Z,70.92
2018-12-24T03:18:02.939Z,70.65
2018-12-24T03:20:46.359Z,70.42
2018-12-24T03:23:30.875Z,70.44
2018-12-24T03:26:15.432Z,71.02
2018-12-24T03:28:56.046Z,70.60
2018-12-24T03:31:37.571Z,70.59
2018-12-24T03:34:19.085Z,70.76
2018-12-24T03:37:00.633Z,70.53
2018-12-24T03:39:43.944Z,70.66
2018-12-24T03:42:12.839Z,70.70
2018-12-24T03:44:55.988Z,70.50
2018-12-24T03:47:40.505Z,70.58
2018-12-24T03:50:21.103Z,70.43
2018-12-24T03:52:49.364Z,70.29
2018-12-24T03:55:17.641Z,70.41
2018-12-24T03:58:00.973Z,70.47
2018-12-24T04:00:42.541Z,70.55
2018-12-24T04:03:23.968Z,70.88
2018-12-24T04:06:09.413Z,70.23
2018-12-24T04:08:53.904Z,70.38
2018-12-24T04:11:38.484Z,70.52
2018-12-24T04:14:27.600Z,70.87
2018-12-24T04:17:17.082Z,70.51
2018-12-24T04:20:01.783Z,70.60
2018-12-24T04:22:42.435Z,70.31
2018-12-24T04:25:10.702Z,70.31
2018-12-24T04:27:55.531Z,70.52
2018-12-24T04:30:40.034Z,70.33
2018-12-24T04:33:08.304Z,70.43
2018-12-24T04:35:49.269Z,70.72
2018-12-24T04:38:30.798Z,70.21
2018-12-24T04:41:14.246Z,70.66
2018-12-24T04:44:07.707Z,70.23
2018-12-24T04:46:51.124Z,70.19
2018-12-24T04:49:35.681Z,70.27
2018-12-24T04:52:04.046Z,70.11
2018-12-24T04:54:48.518Z,70.17
2018-12-24T04:57:16.764Z,70.21
2018-12-24T04:59:45.054Z,70.14
2018-12-24T05:02:13.327Z,69.91
2018-12-24T05:05:07.255Z,70.42
2018-12-24T05:07:50.671Z,70.10
2018-12-24T05:10:31.315Z,70.36
2018-12-24T05:16:14.966Z,70.58
2018-12-24T05:19:12.502Z,70.26
2018-12-24T05:21:53.996Z,70.55
2018-12-24T05:24:35.521Z,70.48
2018-12-24T05:27:17.006Z,70.48
2018-12-24T05:30:07.062Z,70.33
2018-12-24T05:32:47.977Z,70.19
2018-12-24T05:35:31.428Z,70.25
2018-12-24T05:38:12.991Z,70.30
2018-12-24T05:40:54.495Z,70.30
2018-12-24T05:43:22.766Z,70.47
2018-12-24T05:46:03.610Z,70.16
2018-12-24T05:48:45.151Z,70.11
2018-12-24T05:51:37.189Z,70.15
2018-12-24T05:54:18.134Z,70.19
2018-12-24T05:56:59.657Z,70.20
2018-12-24T05:59:27.945Z,70.24
2018-12-24T06:02:12.702Z,70.40
2018-12-24T06:04:40.956Z,70.07
2018-12-24T06:07:25.888Z,69.97
2018-12-24T06:10:06.551Z,69.94
2018-12-24T06:12:48.069Z,70.24
2018-12-24T06:15:31.482Z,69.92
2018-12-24T06:18:16.005Z,70.01
2018-12-24T06:21:09.476Z,70.18
2018-12-24T06:24:04.111Z,70.24
2018-12-24T06:26:32.388Z,69.97
2018-12-24T06:29:15.900Z,70.14
2018-12-24T06:31:54.715Z,70.04
2018-12-24T06:46:48.985Z,69.96
2018-12-24T06:49:37.118Z,69.88
2018-12-24T06:52:34.924Z,69.66
2018-12-24T06:55:18.379Z,69.72
2018-12-24T06:58:10.314Z,69.71
2018-12-24T07:00:55.142Z,69.61
2018-12-24T07:03:39.805Z,69.46
2018-12-24T07:06:24.384Z,69.80
2018-12-24T07:09:05.942Z,68.96
2018-12-24T07:11:49.417Z,69.38
2018-12-24T07:14:33.989Z,69.48
2018-12-24T07:17:14.658Z,69.39
2018-12-24T07:19:42.915Z,69.40
2018-12-24T07:22:27.717Z,69.47
2018-12-24T07:24:55.970Z,69.30
2018-12-24T07:27:49.901Z,69.44
2018-12-24T07:30:33.187Z,69.45
2018-12-24T07:33:25.246Z,69.14
2018-12-24T07:35:53.505Z,69.35
2018-12-24T07:38:36.735Z,69.00
2018-12-24T07:41:21.288Z,68.83
2018-12-24T07:44:05.931Z,69.08
2018-12-24T07:46:34.198Z,69.33
2018-12-24T07:49:02.483Z,68.94
2018-12-24T07:51:30.847Z,69.13
2018-12-24T07:54:15.469Z,69.35
2018-12-24T07:56:57.038Z,69.04
2018-12-24T07:59:25.322Z,69.13
2018-12-24T08:02:06.055Z,69.50
2018-12-24T08:04:49.467Z,69.41
2018-12-24T08:10:31.298Z,68.80
2018-12-24T08:12:59.598Z,68.89
2018-12-24T08:18:42.557Z,68.46
2018-12-24T08:21:23.198Z,68.34
2018-12-24T08:24:06.497Z,68.42
2018-12-24T08:26:53.399Z,68.23
2018-12-24T08:29:21.284Z,68.34
2018-12-24T08:32:02.767Z,68.00
2018-12-24T08:34:44.185Z,68.04
2018-12-24T08:37:25.710Z,67.89
2018-12-24T08:40:10.381Z,67.60
2018-12-24T08:42:51.413Z,67.14
2018-12-24T08:45:32.421Z,67.41
2018-12-24T08:48:15.740Z,67.32
2018-12-24T08:50:56.607Z,67.41
2018-12-24T08:53:38.125Z,67.35
2018-12-24T08:56:07.649Z,67.28
2018-12-24T08:58:48.782Z,67.86
2018-12-24T09:01:25.005Z,67.68
2018-12-24T09:03:55.079Z,67.20
2018-12-24T09:06:36.287Z,67.37
2018-12-24T09:09:07.734Z,66.88
2018-12-24T09:11:48.420Z,66.89
2018-12-24T09:14:33.255Z,66.33
2018-12-24T09:17:14.135Z,65.84
2018-12-24T09:19:54.867Z,65.44
2018-12-24T09:22:38.282Z,64.24
2018-12-24T09:25:22.888Z,63.48
2018-12-24T09:28:07.709Z,63.82
2018-12-24T09:30:48.342Z,64.02
2018-12-24T09:33:22.673Z,64.46
2018-12-24T09:35:53.975Z,64.40
2018-12-24T09:38:35.414Z,64.74
2018-12-24T09:41:23.077Z,64.36
2018-12-24T09:43:53.084Z,64.12
2018-12-24T09:46:29.871Z,64.21
2018-12-24T09:48:59.394Z,63.42
2018-12-24T09:51:44.267Z,63.41
2018-12-24T09:54:18.461Z,60.44
2018-12-24T09:57:01.958Z,60.55
2018-12-24T09:59:46.670Z,58.94
2018-12-24T10:02:29.828Z,59.29
2018-12-24T10:05:14.951Z,58.74
2018-12-24T10:07:56.613Z,60.53
2018-12-24T10:10:37.667Z,60.19
2018-12-24T10:13:22.253Z,60.67
2018-12-24T10:16:02.900Z,60.54
2018-12-24T10:18:46.214Z,60.82
2018-12-24T10:21:26.850Z,60.93
2018-12-24T10:24:08.279Z,60.06
2018-12-24T10:27:00.288Z,60.51
2018-12-24T10:29:41.233Z,59.37
2018-12-24T10:32:33.182Z,60.05
2018-12-24T10:35:18.109Z,60.13
2018-12-24T10:37:49.666Z,59.41
2018-12-24T10:40:30.819Z,57.98
2018-12-24T10:43:13.175Z,58.47
2018-12-24T10:45:57.835Z,59.19
2018-12-24T10:48:38.499Z,59.45
2018-12-24T10:51:19.157Z,59.11
2018-12-24T10:54:00.634Z,59.64
2018-12-24T10:56:41.259Z,59.25
2018-12-24T10:59:22.021Z,59.53
2018-12-24T11:01:50.303Z,60.09
2018-12-24T11:04:28.462Z,60.33
2018-12-24T11:06:57.973Z,60.23
2018-12-24T11:09:41.070Z,60.38
2018-12-24T11:12:25.859Z,60.08
2018-12-24T11:15:10.466Z,58.80
2018-12-24T11:18:01.654Z,58.92
2018-12-24T11:20:46.914Z,59.84
2018-12-24T11:23:15.219Z,57.87
2018-12-24T11:26:09.033Z,57.23
2018-12-24T11:28:37.345Z,57.87
2018-12-24T11:31:05.617Z,57.59
2018-12-24T11:37:03.139Z,58.37
2018-12-24T11:39:47.950Z,58.12
2018-12-24T11:42:16.213Z,58.36
2018-12-24T11:44:57.334Z,58.01
2018-12-24T11:47:38.948Z,56.98
2018-12-24T11:50:26.021Z,57.56
2018-12-24T11:53:13.440Z,57.23
2018-12-24T11:55:47.863Z,55.95
2018-12-24T11:58:19.796Z,56.90
2018-12-24T12:04:03.104Z,56.19
2018-12-24T12:06:43.908Z,56.05
2018-12-24T12:09:12.202Z,56.56
2018-12-24T12:11:53.329Z,57.18
2018-12-24T12:14:34.774Z,57.15
2018-12-24T12:17:19.362Z,57.12
2018-12-24T12:20:00.044Z,54.87
2018-12-24T12:22:31.278Z,54.62
2018-12-24T12:25:13.307Z,55.18
2018-12-24T12:27:41.566Z,54.46
2018-12-24T12:30:24.620Z,54.69
2018-12-24T12:39:11.344Z,53.36
2018-12-24T12:42:09.329Z,54.05
2018-12-24T12:44:57.363Z,52.84
2018-12-24T12:47:44.916Z,53.47
2018-12-24T12:56:25.266Z,52.84
2018-12-24T12:58:53.554Z,53.03
2018-12-24T13:01:21.866Z,53.26
2018-12-24T13:07:02.865Z,53.06
2018-12-24T13:09:44.191Z,53.45
2018-12-24T13:12:38.483Z,53.66
2018-12-24T13:18:07.257Z,54.57
2018-12-24T13:20:35.516Z,53.93
2018-12-24T13:23:16.638Z,52.63
2018-12-24T13:25:44.903Z,52.97
2018-12-24T13:31:34.344Z,54.40
2018-12-24T13:37:08.152Z,54.19
2018-12-24T13:39:39.937Z,53.73
2018-12-24T13:42:14.432Z,52.96
2018-12-24T13:44:55.552Z,52.83
2018-12-24T13:47:23.829Z,52.83
2018-12-24T13:50:05.666Z,53.87
2018-12-24T13:52:34.051Z,52.67
2018-12-24T13:55:02.357Z,52.05
2018-12-24T13:57:30.606Z,52.63
2018-12-24T14:03:30.468Z,52.08
2018-12-24T14:05:58.740Z,52.66
2018-12-24T14:08:27.037Z,53.16
2018-12-24T14:11:08.198Z,52.37
2018-12-24T14:13:36.456Z,52.90
2018-12-24T14:16:04.734Z,53.19
2018-12-24T14:18:33.034Z,53.92
2018-12-24T14:21:27.254Z,53.68
2018-12-24T14:23:55.513Z,53.93
2018-12-24T14:26:23.798Z,54.14
2018-12-24T14:29:05.122Z,53.25
2018-12-24T14:31:46.176Z,53.01
2018-12-24T14:34:21.102Z,53.26
2018-12-24T14:43:09.058Z,53.07
2018-12-24T14:45:47.024Z,53.47
2018-12-24T14:48:38.786Z,54.11
2018-12-24T14:51:17.277Z,53.60
2018-12-24T14:53:48.505Z,54.07
2018-12-24T14:56:30.118Z,54.14
2018-12-24T14:59:04.909Z,53.59
2018-12-24T15:01:41.302Z,53.81
2018-12-24T15:07:29.182Z,53.11
2018-12-24T15:10:18.094Z,53.24
2018-12-24T15:13:07.108Z,53.59
2018-12-24T15:15:55.919Z,53.32
2018-12-24T15:18:44.735Z,53.58
2018-12-24T15:21:33.641Z,53.97
2018-12-24T15:24:22.493Z,55.97
2018-12-24T15:27:11.296Z,56.26
2018-12-24T15:29:53.096Z,56.46
2018-12-24T15:32:42.021Z,56.57
2018-12-24T15:35:30.811Z,56.76
2018-12-24T15:38:19.637Z,57.13
2018-12-24T15:41:08.445Z,57.65
2018-12-24T15:43:57.265Z,58.03
2018-12-24T15:46:46.134Z,58.51
2018-12-24T15:49:34.941Z,58.88
2018-12-24T15:52:23.792Z,58.52
2018-12-24T15:55:12.607Z,58.85
2018-12-24T15:58:01.472Z,59.04
2018-12-24T16:00:50.295Z,59.23
2018-12-24T16:03:39.148Z,59.71
2018-12-24T16:06:27.995Z,60.52
2018-12-24T16:09:16.890Z,60.12
2018-12-24T16:12:05.721Z,60.00
2018-12-24T16:14:54.588Z,60.11
2018-12-24T16:17:43.420Z,60.12
2018-12-24T16:20:32.272Z,59.97
2018-12-24T16:23:21.143Z,60.12
2018-12-24T16:26:10.011Z,60.53
2018-12-24T16:28:52.034Z,60.40
2018-12-24T16:31:40.838Z,60.37
2018-12-24T16:34:29.691Z,60.81
2018-12-24T16:37:18.508Z,61.17
2018-12-24T16:40:07.358Z,61.24
2018-12-24T16:42:56.172Z,61.40
2018-12-24T16:45:45.018Z,61.62
2018-12-24T16:48:33.856Z,61.85
2018-12-24T16:51:22.719Z,61.97
2018-12-24T16:54:11.327Z,62.12
2018-12-24T16:57:00.201Z,62.07
2018-12-24T16:59:49.013Z,62.17
2018-12-24T17:02:37.852Z,62.22
2018-12-24T17:05:26.660Z,62.44
2018-12-24T17:08:15.517Z,62.57
2018-12-24T17:11:04.338Z,62.93
2018-12-24T17:13:53.214Z,62.90
2018-12-24T17:16:35.320Z,63.13
2018-12-24T17:19:24.134Z,63.16
2018-12-24T17:22:12.997Z,63.18
2018-12-24T17:25:01.881Z,63.46
2018-12-24T17:27:50.684Z,63.40
2018-12-24T17:30:39.219Z,63.45
2018-12-24T17:33:28.051Z,63.83
2018-12-24T17:36:16.935Z,64.00
2018-12-24T17:39:26.719Z,63.91
2018-12-24T17:42:15.176Z,63.94
2018-12-24T17:45:04.190Z,64.54
2018-12-24T17:47:54.344Z,64.75
2018-12-24T17:50:43.168Z,64.88
2018-12-24T17:53:31.999Z,64.91
2018-12-24T17:56:20.896Z,64.95
2018-12-24T17:59:09.811Z,64.89
2018-12-24T18:01:58.818Z,64.95
2018-12-24T18:04:47.726Z,65.32
2018-12-24T18:07:36.746Z,65.50
2018-12-24T18:10:25.619Z,65.34
2018-12-24T18:13:14.497Z,65.20
2018-12-24T18:15:55.818Z,65.27
2018-12-24T18:18:44.701Z,65.11
2018-12-24T18:21:33.553Z,65.54
2018-12-24T18:24:03.030Z,65.89
2018-12-24T18:26:32.511Z,65.86
2018-12-24T18:29:21.380Z,65.75
2018-12-24T18:32:03.432Z,65.87
2018-12-24T18:34:52.382Z,65.76
2018-12-24T18:37:41.191Z,65.78
2018-12-24T18:40:30.047Z,65.77
2018-12-24T18:43:18.862Z,66.05
2018-12-24T18:46:07.777Z,66.21
2018-12-24T18:48:56.650Z,66.19
2018-12-24T18:51:45.484Z,66.17
2018-12-24T18:54:34.316Z,66.20
2018-12-24T18:57:03.804Z,66.53
2018-12-24T18:59:33.320Z,66.91
2018-12-24T19:02:02.806Z,66.59
2018-12-24T19:08:06.987Z,66.76
2018-12-24T19:10:36.528Z,66.88
2018-12-24T19:13:25.380Z,66.81
2018-12-24T19:16:14.230Z,66.87
2018-12-24T19:19:03.058Z,66.84
2018-12-24T19:21:51.972Z,66.86
2018-12-24T19:24:40.861Z,66.62
2018-12-24T19:27:29.649Z,67.06
2018-12-24T19:30:18.581Z,67.22
2018-12-24T19:33:07.406Z,67.30
2018-12-24T19:35:56.250Z,67.13
2018-12-24T19:38:45.134Z,67.43
2018-12-24T19:41:34.081Z,67.35
2018-12-24T19:44:03.628Z,67.22
2018-12-24T19:46:52.471Z,67.07
2018-12-24T19:49:33.782Z,67.18
2018-12-24T19:52:03.367Z,67.14
2018-12-24T19:54:52.238Z,67.41
2018-12-24T19:57:41.071Z,67.61
2018-12-24T20:00:29.979Z,67.74
2018-12-24T20:03:18.839Z,67.94
2018-12-24T20:06:07.636Z,67.81
2018-12-24T20:08:37.245Z,68.06
2018-12-24T20:11:26.090Z,68.22
2018-12-24T20:14:14.916Z,68.16
2018-12-24T20:17:03.750Z,68.21
2018-12-24T20:19:52.616Z,68.17
2018-12-24T20:22:22.098Z,68.37
2018-12-24T20:25:10.996Z,68.26
2018-12-24T20:27:59.854Z,68.26
2018-12-24T20:30:48.667Z,68.20
2018-12-24T20:33:30.614Z,68.13
2018-12-24T20:36:19.410Z,68.09
2018-12-24T20:39:08.899Z,68.22
2018-12-24T20:41:57.716Z,68.14
2018-12-24T20:44:46.640Z,68.18
2018-12-24T20:47:16.191Z,68.24
2018-12-24T20:50:05.168Z,68.19
2018-12-24T20:52:54.045Z,68.14
2018-12-24T20:55:42.905Z,68.12
2018-12-24T20:58:12.411Z,68.11
2018-12-24T21:01:01.274Z,68.04
2018-12-24T21:03:50.112Z,68.16
2018-12-24T21:06:38.930Z,68.03
2018-12-24T21:09:27.808Z,68.02
2018-12-24T21:12:16.652Z,67.94
2018-12-24T21:15:05.886Z,67.91
2018-12-24T21:17:54.755Z,67.84
2018-12-24T21:20:43.576Z,67.98
2018-12-24T21:23:32.627Z,67.91
2018-12-24T21:26:21.477Z,67.93
2018-12-24T21:29:10.327Z,67.95
2018-12-24T21:31:59.123Z,67.69
2018-12-24T21:34:48.054Z,67.66
2018-12-24T21:37:36.548Z,67.72
2018-12-24T21:40:25.431Z,67.67
2018-12-24T21:43:14.232Z,67.58
2018-12-24T21:46:03.086Z,67.55
2018-12-24T21:48:51.960Z,67.58
2018-12-24T21:51:40.807Z,67.71
2018-12-24T21:54:29.645Z,67.55
2018-12-24T21:57:18.525Z,67.66
2018-12-24T22:00:07.912Z,67.48
2018-12-24T22:02:56.798Z,67.24
2018-12-24T22:05:45.638Z,67.38
2018-12-24T22:08:34.453Z,67.46
2018-12-24T22:11:23.313Z,67.19
2018-12-24T22:14:12.169Z,66.99
2018-12-24T22:17:01.022Z,67.21
2018-12-24T22:19:49.838Z,67.13
2018-12-24T22:22:38.690Z,67.00
2018-12-24T22:25:27.537Z,66.93
2018-12-24T22:28:16.766Z,67.08
2018-12-24T22:31:06.907Z,66.97
2018-12-24T22:33:55.841Z,66.96
2018-12-24T22:36:37.634Z,67.08
2018-12-24T22:39:26.483Z,67.08
2018-12-24T22:42:15.311Z,66.84
2018-12-24T22:45:04.459Z,66.94
2018-12-24T22:47:53.317Z,66.52
2018-12-24T22:50:42.137Z,66.66
2018-12-24T22:53:31.061Z,66.64
2018-12-24T22:56:19.927Z,66.85
2018-12-24T22:59:08.791Z,66.94
2018-12-24T23:01:57.678Z,67.08
2018-12-24T23:04:46.577Z,66.94
2018-12-24T23:07:35.455Z,66.90
2018-12-24T23:10:24.334Z,67.06
2018-12-24T23:13:13.178Z,67.03
2018-12-24T23:16:02.022Z,67.16
2018-12-24T23:18:50.814Z,67.26
2018-12-24T23:21:39.673Z,67.22
2018-12-24T23:24:28.516Z,66.98
2018-12-24T23:27:17.333Z,66.59
2018-12-24T23:30:27.100Z,66.72
2018-12-24T23:33:16.003Z,66.59
2018-12-24T23:35:57.943Z,66.23
2018-12-24T23:38:46.789Z,66.43
2018-12-24T23:41:35.599Z,66.16
2018-12-24T23:44:24.437Z,66.47
2018-12-24T23:47:13.281Z,66.61
2018-12-24T23:50:02.186Z,66.66
2018-12-24T23:52:51.028Z,66.59
2018-12-24T23:55:39.970Z,66.54
2018-12-24T23:58:28.781Z,66.63
